Time;durP1;ratioP1;P1;durP2;ratioP2;P2;SDS_P1;SDS_P2;PMS_P1;PMS_P2;Temp;Humidity;BMP_temperature;BMP_pressure;BME280_temperature;BME280_humidity;BME280_pressure;Samples;Min_cycle;Max_cycle;Signal;HPM_P1;HPM_P2
2024/02/18 00:01:38;;;;;;;11.40;4.30;;;;;;;;;;103505;1296;545388;-72
2024/02/18 00:05:16;;;;;;;13.70;5.90;;;;;;;;;;103693;1289;544761;-72
2024/02/18 00:08:53;;;;;;;11.20;4.90;;;;;;;;;;103491;1291;545368;-72
2024/02/18 00:12:31;;;;;;;11.90;5.30;;;;;;;;;;103796;1288;545746;-71
2024/02/18 00:16:04;;;;;;;11.80;5.40;;;;;;;;;;103920;1288;545037;-72
2024/02/18 00:19:46;;;;;;;8.90;4.20;;;;;;;;;;103830;1289;545754;-72
2024/02/18 00:23:19;;;;;;;9.00;4.00;;;;;;;;;;103744;1292;546054;-71
2024/02/18 00:27:01;;;;;;;10.40;4.70;;;;;;;;;;104031;1289;545201;-72
2024/02/18 00:30:38;;;;;;;14.70;5.70;;;;;;;;;;103879;1289;545068;-72
2024/02/18 00:34:21;;;;;;;10.80;3.90;;;;;;;;;;103782;1292;544732;-72
2024/02/18 00:37:53;;;;;;;11.30;3.90;;;;;;;;;;103704;1291;545176;-71
2024/02/18 00:41:31;;;;;;;11.90;4.50;;;;;;;;;;104638;1282;544946;-72
2024/02/18 00:45:08;;;;;;;9.60;4.00;;;;;;;;;;103813;1289;544961;-72
2024/02/18 00:48:46;;;;;;;9.50;4.20;;;;;;;;;;103945;1289;544708;-72
2024/02/18 00:52:23;;;;;;;10.40;3.70;;;;;;;;;;103818;1291;544714;-72
2024/02/18 00:56:00;;;;;;;10.70;4.00;;;;;;;;;;103733;1291;545291;-72
2024/02/18 00:59:38;;;;;;;11.00;3.90;;;;;;;;;;103694;1291;544948;-72
2024/02/18 01:03:15;;;;;;;12.10;4.30;;;;;;;;;;103846;1293;545317;-72
2024/02/18 01:06:53;;;;;;;12.20;4.40;;;;;;;;;;103710;1293;546001;-72
2024/02/18 01:10:30;;;;;;;10.80;3.90;;;;;;;;;;103805;1290;545429;-72
2024/02/18 01:14:07;;;;;;;10.60;4.40;;;;;;;;;;103850;1295;544984;-72
2024/02/18 01:17:45;;;;;;;10.50;5.10;;;;;;;;;;103860;1289;544802;-72
2024/02/18 01:21:19;;;;;;;10.10;4.90;;;;;;;;;;103767;1289;545353;-72
2024/02/18 01:25:00;;;;;;;8.90;3.80;;;;;;;;;;104036;1289;545520;-72
2024/02/18 01:28:37;;;;;;;10.10;4.50;;;;;;;;;;103726;1291;545616;-72
2024/02/18 01:32:15;;;;;;;9.80;4.10;;;;;;;;;;103706;1302;547167;-72
2024/02/18 01:35:52;;;;;;;8.80;4.10;;;;;;;;;;103737;1290;545007;-72
2024/02/18 01:39:30;;;;;;;8.50;2.90;;;;;;;;;;103762;1289;544824;-72
2024/02/18 01:43:03;;;;;;;7.90;2.60;;;;;;;;;;103754;1292;545889;-70
2024/02/18 01:46:45;;;;;;;6.80;2.50;;;;;;;;;;103777;1289;544840;-72
2024/02/18 01:50:23;;;;;;;8.10;3.10;;;;;;;;;;103620;1291;544631;-72
2024/02/18 01:54:00;;;;;;;8.40;2.30;;;;;;;;;;103770;1292;544989;-71
2024/02/18 01:57:37;;;;;;;8.30;2.30;;;;;;;;;;103669;1289;545222;-72
2024/02/18 02:01:17;;;;;;;8.00;2.20;;;;;;;;;;103764;1292;544694;-72
2024/02/18 02:04:52;;;;;;;7.50;2.50;;;;;;;;;;103821;1295;545323;-72
2024/02/18 02:08:30;;;;;;;8.20;2.70;;;;;;;;;;103784;1292;545584;-72
2024/02/18 02:12:07;;;;;;;7.70;2.60;;;;;;;;;;103625;1295;545404;-72
2024/02/18 02:15:45;;;;;;;7.60;2.30;;;;;;;;;;103804;1289;545206;-72
2024/02/18 02:19:22;;;;;;;7.40;2.10;;;;;;;;;;103826;1289;544962;-72
2024/02/18 02:23:00;;;;;;;7.70;2.10;;;;;;;;;;103797;1294;544989;-72
2024/02/18 02:26:37;;;;;;;7.30;2.50;;;;;;;;;;103598;1292;544704;-70
2024/02/18 02:30:14;;;;;;;7.80;3.00;;;;;;;;;;103793;1290;545217;-71
2024/02/18 02:33:52;;;;;;;9.70;2.60;;;;;;;;;;103796;1295;544821;-72
2024/02/18 02:37:30;;;;;;;7.60;2.60;;;;;;;;;;103711;1295;544897;-72
2024/02/18 02:41:06;;;;;;;9.40;3.30;;;;;;;;;;103795;1292;545097;-72
2024/02/18 02:44:44;;;;;;;10.70;3.20;;;;;;;;;;103832;1289;544951;-72
2024/02/18 02:48:21;;;;;;;7.70;2.50;;;;;;;;;;103776;1289;545374;-72
2024/02/18 02:51:59;;;;;;;9.00;3.20;;;;;;;;;;103661;1291;545051;-72
2024/02/18 02:55:36;;;;;;;6.20;2.20;;;;;;;;;;103794;1289;545509;-71
2024/02/18 02:59:14;;;;;;;7.70;2.50;;;;;;;;;;103805;1296;544969;-72
2024/02/18 03:02:51;;;;;;;6.20;2.40;;;;;;;;;;103705;1295;545020;-72
2024/02/18 03:06:29;;;;;;;7.70;2.20;;;;;;;;;;103835;1295;544966;-72
2024/02/18 03:10:03;;;;;;;6.70;1.90;;;;;;;;;;103701;1289;544700;-69
2024/02/18 03:13:43;;;;;;;6.00;1.80;;;;;;;;;;103711;1303;544772;-72
2024/02/18 03:17:21;;;;;;;7.10;2.00;;;;;;;;;;103749;1289;545567;-72
2024/02/18 03:20:59;;;;;;;7.40;2.10;;;;;;;;;;103926;1289;544970;-72
2024/02/18 03:24:39;;;;;;;7.10;2.00;;;;;;;;;;103660;1291;545019;-72
2024/02/18 03:28:14;;;;;;;5.70;1.90;;;;;;;;;;103831;1292;545489;-72
2024/02/18 03:31:51;;;;;;;8.40;1.90;;;;;;;;;;103620;1291;544867;-72
2024/02/18 03:35:28;;;;;;;5.60;1.70;;;;;;;;;;103833;1289;545128;-71
2024/02/18 03:39:06;;;;;;;5.70;1.80;;;;;;;;;;103821;1292;544598;-72
2024/02/18 03:42:44;;;;;;;8.70;2.20;;;;;;;;;;103659;1294;546055;-72
2024/02/18 03:46:21;;;;;;;8.50;2.50;;;;;;;;;;103721;1296;545406;-72
2024/02/18 03:49:58;;;;;;;9.30;2.80;;;;;;;;;;103762;1292;545061;-71
2024/02/18 03:53:36;;;;;;;6.70;2.30;;;;;;;;;;103648;1291;544872;-72
2024/02/18 03:57:13;;;;;;;9.30;2.50;;;;;;;;;;103778;1289;545158;-72
2024/02/18 04:00:51;;;;;;;10.90;3.70;;;;;;;;;;103751;1291;545981;-72
2024/02/18 04:04:28;;;;;;;9.50;3.10;;;;;;;;;;104004;1290;544991;-72
2024/02/18 04:08:06;;;;;;;7.90;2.60;;;;;;;;;;103646;1291;544629;-72
2024/02/18 04:11:43;;;;;;;6.70;2.40;;;;;;;;;;103722;1289;545939;-71
2024/02/18 04:15:17;;;;;;;7.70;2.90;;;;;;;;;;103872;1292;544998;-70
2024/02/18 04:18:58;;;;;;;9.00;2.80;;;;;;;;;;103725;1291;544771;-72
2024/02/18 04:22:35;;;;;;;9.60;3.20;;;;;;;;;;104000;1289;545109;-72
2024/02/18 04:26:12;;;;;;;7.20;2.60;;;;;;;;;;103578;1289;545681;-72
2024/02/18 04:29:50;;;;;;;7.50;2.40;;;;;;;;;;103637;1292;544720;-72
2024/02/18 04:33:28;;;;;;;9.30;2.80;;;;;;;;;;103789;1292;545615;-72
2024/02/18 04:37:05;;;;;;;7.80;2.80;;;;;;;;;;103735;1293;545551;-72
2024/02/18 04:40:43;;;;;;;9.20;3.00;;;;;;;;;;103768;1290;545413;-72
2024/02/18 04:44:20;;;;;;;8.30;3.40;;;;;;;;;;103681;1289;545228;-72
2024/02/18 04:47:59;;;;;;;10.00;3.30;;;;;;;;;;103964;1289;545583;-72
2024/02/18 04:51:34;;;;;;;8.30;3.10;;;;;;;;;;103667;1295;545078;-72
2024/02/18 04:55:08;;;;;;;8.40;3.10;;;;;;;;;;103799;1289;545341;-70
2024/02/18 04:58:50;;;;;;;8.30;3.00;;;;;;;;;;103783;1289;545924;-72
2024/02/18 05:02:28;;;;;;;8.10;3.10;;;;;;;;;;104302;1288;545426;-72
2024/02/18 05:06:07;;;;;;;8.60;2.50;;;;;;;;;;103776;1289;545437;-72
2024/02/18 05:09:42;;;;;;;6.10;1.70;;;;;;;;;;103867;1289;545318;-72
2024/02/18 05:13:16;;;;;;;7.00;2.00;;;;;;;;;;103695;1289;545559;-70
2024/02/18 05:16:59;;;;;;;5.70;1.60;;;;;;;;;;103847;1290;544952;-72
2024/02/18 05:20:34;;;;;;;9.50;2.30;;;;;;;;;;103728;1292;545144;-72
2024/02/18 05:24:11;;;;;;;7.40;2.30;;;;;;;;;;103830;1292;544951;-72
2024/02/18 05:27:49;;;;;;;8.30;2.40;;;;;;;;;;103698;1290;544879;-72
2024/02/18 05:31:28;;;;;;;6.70;1.90;;;;;;;;;;103997;1289;545751;-72
2024/02/18 05:35:05;;;;;;;7.30;2.30;;;;;;;;;;103737;1290;545034;-72
2024/02/18 05:38:40;;;;;;;8.70;3.50;;;;;;;;;;103812;1289;544958;-72
2024/02/18 05:42:20;;;;;;;10.00;3.90;;;;;;;;;;103826;1289;545027;-72
2024/02/18 05:45:57;;;;;;;8.80;3.50;;;;;;;;;;103807;1289;544779;-72
2024/02/18 05:49:36;;;;;;;8.30;3.20;;;;;;;;;;103775;1294;545241;-72
2024/02/18 05:53:08;;;;;;;9.80;3.70;;;;;;;;;;103840;1289;545322;-72
2024/02/18 05:56:49;;;;;;;8.60;3.10;;;;;;;;;;103670;1292;545140;-72
2024/02/18 06:00:27;;;;;;;6.40;1.90;;;;;;;;;;103804;1301;544945;-71
2024/02/18 06:04:05;;;;;;;7.90;2.20;;;;;;;;;;103754;1292;544993;-72
2024/02/18 06:07:42;;;;;;;10.90;3.10;;;;;;;;;;103799;1289;545081;-72
2024/02/18 06:11:15;;;;;;;9.20;3.10;;;;;;;;;;103765;1289;545675;-72
2024/02/18 06:14:57;;;;;;;7.10;2.10;;;;;;;;;;103713;1290;544840;-71
2024/02/18 06:18:34;;;;;;;8.60;3.10;;;;;;;;;;103816;1288;544972;-71
2024/02/18 06:22:10;;;;;;;10.80;3.20;;;;;;;;;;103643;1288;544981;-70
2024/02/18 06:25:50;;;;;;;12.20;3.50;;;;;;;;;;103776;1289;544978;-72
2024/02/18 06:29:27;;;;;;;11.00;4.60;;;;;;;;;;103672;1294;545569;-72
2024/02/18 06:33:07;;;;;;;14.40;5.80;;;;;;;;;;103778;1292;545203;-72
2024/02/18 06:36:42;;;;;;;24.20;13.50;;;;;;;;;;103726;1291;544993;-72
2024/02/18 06:40:19;;;;;;;16.70;6.10;;;;;;;;;;103748;1290;544860;-72
2024/02/18 06:43:57;;;;;;;9.90;3.80;;;;;;;;;;103808;1289;544971;-72
2024/02/18 06:47:35;;;;;;;8.10;3.00;;;;;;;;;;103658;1295;544912;-72
2024/02/18 06:51:12;;;;;;;12.40;3.90;;;;;;;;;;103766;1292;545555;-72
2024/02/18 06:54:49;;;;;;;9.90;3.40;;;;;;;;;;103773;1296;545103;-72
2024/02/18 06:58:27;;;;;;;9.00;3.40;;;;;;;;;;103847;1292;545586;-72
2024/02/18 07:02:05;;;;;;;8.10;2.70;;;;;;;;;;103844;1288;544730;-72
2024/02/18 07:05:41;;;;;;;10.10;2.80;;;;;;;;;;103696;1291;546053;-72
2024/02/18 07:09:14;;;;;;;8.50;2.80;;;;;;;;;;103741;1288;544810;-72
2024/02/18 07:12:56;;;;;;;7.70;2.60;;;;;;;;;;103838;1289;545515;-72
2024/02/18 07:16:33;;;;;;;8.30;3.30;;;;;;;;;;103755;1289;544982;-72
2024/02/18 07:20:13;;;;;;;11.80;4.10;;;;;;;;;;103693;1289;544751;-72
2024/02/18 07:23:50;;;;;;;12.40;4.20;;;;;;;;;;103892;1289;544838;-72
2024/02/18 07:27:26;;;;;;;11.00;3.70;;;;;;;;;;103818;1289;545022;-72
2024/02/18 07:30:59;;;;;;;8.10;3.50;;;;;;;;;;103667;1295;545316;-70
2024/02/18 07:34:41;;;;;;;10.20;3.40;;;;;;;;;;103817;1289;545699;-72
2024/02/18 07:38:18;;;;;;;8.60;3.20;;;;;;;;;;103637;1303;545605;-72
2024/02/18 07:41:56;;;;;;;9.10;3.30;;;;;;;;;;103789;1290;544967;-72
2024/02/18 07:45:33;;;;;;;11.00;4.10;;;;;;;;;;103726;1289;544747;-72
2024/02/18 07:49:12;;;;;;;8.80;3.60;;;;;;;;;;103808;1292;544982;-72
2024/02/18 07:52:48;;;;;;;11.30;4.00;;;;;;;;;;103613;1291;545393;-72
2024/02/18 07:56:26;;;;;;;9.20;3.70;;;;;;;;;;103778;1295;544789;-72
2024/02/18 08:00:03;;;;;;;11.10;4.70;;;;;;;;;;103686;1295;544819;-72
2024/02/18 08:03:40;;;;;;;11.30;5.00;;;;;;;;;;103796;1289;544962;-72
2024/02/18 08:07:19;;;;;;;10.80;4.80;;;;;;;;;;103740;1291;544959;-72
2024/02/18 08:10:55;;;;;;;10.60;4.50;;;;;;;;;;103697;1290;545328;-73
2024/02/18 08:14:33;;;;;;;9.60;4.30;;;;;;;;;;103870;1288;545523;-72
2024/02/18 08:18:11;;;;;;;10.10;5.00;;;;;;;;;;103886;1292;544805;-72
2024/02/18 08:21:48;;;;;;;12.00;5.70;;;;;;;;;;103823;1296;545367;-72
2024/02/18 08:25:25;;;;;;;12.10;5.60;;;;;;;;;;103861;1289;544963;-72
2024/02/18 08:29:02;;;;;;;10.30;5.00;;;;;;;;;;103607;1291;545448;-72
2024/02/18 08:32:41;;;;;;;10.40;4.50;;;;;;;;;;103625;1289;545034;-72
2024/02/18 08:36:18;;;;;;;9.30;5.00;;;;;;;;;;103728;1292;544977;-72
2024/02/18 08:39:55;;;;;;;9.50;4.70;;;;;;;;;;103800;1289;544965;-72
2024/02/18 08:43:33;;;;;;;8.80;4.40;;;;;;;;;;103712;1292;545803;-72
2024/02/18 08:47:11;;;;;;;11.30;5.00;;;;;;;;;;103515;1294;545492;-72
2024/02/18 08:50:44;;;;;;;11.60;5.20;;;;;;;;;;103413;1290;545032;-70
2024/02/18 08:54:25;;;;;;;11.50;5.10;;;;;;;;;;103681;1291;545061;-72
2024/02/18 08:58:03;;;;;;;10.40;4.90;;;;;;;;;;103753;1292;544957;-72
2024/02/18 09:01:36;;;;;;;10.80;4.90;;;;;;;;;;103772;1291;544996;-72
2024/02/18 09:05:18;;;;;;;11.30;4.90;;;;;;;;;;103718;1289;545169;-72
2024/02/18 09:08:55;;;;;;;10.50;4.70;;;;;;;;;;103821;1289;545099;-72
2024/02/18 09:12:29;;;;;;;10.30;4.70;;;;;;;;;;103760;1289;545577;-70
2024/02/18 09:16:10;;;;;;;11.00;4.20;;;;;;;;;;104264;1285;546097;-72
2024/02/18 09:19:48;;;;;;;9.00;4.20;;;;;;;;;;103703;1289;544838;-72
2024/02/18 09:23:24;;;;;;;9.80;4.30;;;;;;;;;;103795;1289;544862;-72
2024/02/18 09:27:02;;;;;;;8.90;3.90;;;;;;;;;;103754;1292;544936;-72
2024/02/18 09:30:40;;;;;;;12.10;4.00;;;;;;;;;;103827;1289;544581;-72
2024/02/18 09:34:18;;;;;;;9.80;4.40;;;;;;;;;;103664;1291;545164;-72
2024/02/18 09:37:54;;;;;;;8.60;4.00;;;;;;;;;;104175;1289;545062;-72
2024/02/18 09:41:33;;;;;;;10.00;4.60;;;;;;;;;;103782;1289;544793;-72
2024/02/18 09:45:16;;;;;;;11.10;4.30;;;;;;;;;;103768;1289;545031;-73
2024/02/18 09:48:47;;;;;;;10.70;4.40;;;;;;;;;;103733;1295;545399;-73
2024/02/18 09:52:28;;;;;;;10.40;5.10;;;;;;;;;;103800;1290;544774;-72
2024/02/18 09:56:02;;;;;;;7.50;3.90;;;;;;;;;;103496;1292;546397;-73
2024/02/18 09:59:35;;;;;;;9.70;4.60;;;;;;;;;;103773;1289;546484;-72
2024/02/18 10:03:14;;;;;;;9.90;4.50;;;;;;;;;;103771;1289;545254;-71
2024/02/18 10:06:55;;;;;;;10.30;4.00;;;;;;;;;;103674;1294;545712;-72
2024/02/18 10:10:33;;;;;;;10.00;4.30;;;;;;;;;;104144;1286;545685;-72
2024/02/18 10:14:09;;;;;;;8.80;4.30;;;;;;;;;;103792;1289;544849;-72
2024/02/18 10:17:46;;;;;;;9.60;4.00;;;;;;;;;;103675;1295;545432;-72
2024/02/18 10:21:25;;;;;;;9.00;4.10;;;;;;;;;;103947;1292;544889;-72
2024/02/18 10:25:01;;;;;;;10.60;4.30;;;;;;;;;;103939;1289;544821;-72
2024/02/18 10:28:39;;;;;;;8.90;4.00;;;;;;;;;;103759;1289;544876;-72
2024/02/18 10:32:17;;;;;;;10.70;4.60;;;;;;;;;;103824;1289;545629;-72
2024/02/18 10:35:55;;;;;;;9.40;4.60;;;;;;;;;;103834;1289;544972;-72
2024/02/18 10:39:32;;;;;;;9.40;4.50;;;;;;;;;;103876;1289;545470;-71
2024/02/18 10:43:10;;;;;;;9.70;4.90;;;;;;;;;;104467;1282;545320;-72
2024/02/18 10:46:48;;;;;;;9.70;4.80;;;;;;;;;;103845;1288;545521;-72
2024/02/18 10:50:27;;;;;;;9.90;4.70;;;;;;;;;;103963;1295;545704;-72
2024/02/18 10:54:30;;;;;;;9.50;4.10;;;;;;;;;;103702;1291;544853;-72
2024/02/18 10:57:59;;;;;;;9.50;4.70;;;;;;;;;;103712;1289;544844;-73
2024/02/18 11:01:13;;;;;;;9.20;4.90;;;;;;;;;;103853;1289;545228;-70
2024/02/18 11:04:54;;;;;;;9.60;4.20;;;;;;;;;;103875;1288;545045;-73
2024/02/18 11:08:33;;;;;;;9.60;4.60;;;;;;;;;;103631;1292;545017;-73
2024/02/18 11:12:05;;;;;;;10.60;5.10;;;;;;;;;;103663;1289;544732;-72
2024/02/18 11:15:46;;;;;;;10.90;5.20;;;;;;;;;;103622;1294;545632;-73
2024/02/18 11:19:19;;;;;;;9.00;4.80;;;;;;;;;;103738;1292;545462;-72
2024/02/18 11:23:01;;;;;;;10.40;5.60;;;;;;;;;;103731;1289;544841;-73
2024/02/18 11:26:38;;;;;;;9.50;5.30;;;;;;;;;;103758;1289;544764;-73
2024/02/18 11:30:16;;;;;;;9.00;5.30;;;;;;;;;;103661;1295;544987;-73
2024/02/18 11:33:53;;;;;;;9.20;5.10;;;;;;;;;;104121;1286;544989;-72
2024/02/18 11:37:32;;;;;;;11.20;5.20;;;;;;;;;;103634;1291;545385;-73
2024/02/18 11:41:14;;;;;;;11.40;5.80;;;;;;;;;;104391;1290;546147;-73
2024/02/18 11:44:46;;;;;;;9.70;4.70;;;;;;;;;;103720;1291;544627;-72
2024/02/18 11:48:23;;;;;;;12.20;6.30;;;;;;;;;;103822;1289;544945;-73
2024/02/18 11:52:01;;;;;;;9.10;5.40;;;;;;;;;;103647;1291;545167;-73
2024/02/18 11:55:38;;;;;;;7.90;4.80;;;;;;;;;;103704;1292;544809;-72
2024/02/18 11:59:12;;;;;;;10.20;5.60;;;;;;;;;;103696;1291;546028;-71
2024/02/18 12:02:54;;;;;;;10.70;6.10;;;;;;;;;;103800;1301;545500;-73
2024/02/18 12:06:31;;;;;;;11.00;6.20;;;;;;;;;;103711;1291;545032;-72
2024/02/18 12:10:08;;;;;;;11.00;5.90;;;;;;;;;;103811;1292;545139;-73
2024/02/18 12:13:45;;;;;;;11.50;6.70;;;;;;;;;;104178;1285;545007;-73
2024/02/18 12:17:23;;;;;;;9.10;5.10;;;;;;;;;;103781;1289;544763;-74
2024/02/18 12:21:00;;;;;;;9.70;5.10;;;;;;;;;;104172;1289;545045;-72
2024/02/18 12:24:39;;;;;;;9.30;5.30;;;;;;;;;;103874;1293;545079;-73
2024/02/18 12:28:15;;;;;;;9.00;4.60;;;;;;;;;;103649;1291;545721;-72
2024/02/18 12:31:53;;;;;;;8.40;4.50;;;;;;;;;;104020;1289;544837;-73
2024/02/18 12:35:36;;;;;;;9.10;4.50;;;;;;;;;;103766;1291;544974;-72
2024/02/18 12:39:08;;;;;;;10.10;5.20;;;;;;;;;;103708;1292;544820;-72
2024/02/18 12:42:45;;;;;;;10.30;4.90;;;;;;;;;;103846;1289;544875;-73
2024/02/18 12:46:22;;;;;;;8.80;4.80;;;;;;;;;;103746;1290;544983;-73
2024/02/18 12:50:03;;;;;;;9.30;5.10;;;;;;;;;;103629;1291;545026;-72
2024/02/18 12:53:38;;;;;;;9.70;5.20;;;;;;;;;;103713;1289;545678;-73
2024/02/18 12:57:11;;;;;;;9.70;5.20;;;;;;;;;;103769;1288;545467;-72
2024/02/18 13:00:52;;;;;;;12.30;5.80;;;;;;;;;;103758;1289;544883;-72
2024/02/18 13:04:29;;;;;;;10.50;5.00;;;;;;;;;;103647;1289;545689;-73
2024/02/18 13:08:07;;;;;;;10.40;5.50;;;;;;;;;;103642;1289;545973;-73
2024/02/18 13:11:44;;;;;;;13.10;6.00;;;;;;;;;;103676;1292;544970;-72
2024/02/18 13:15:22;;;;;;;9.40;5.30;;;;;;;;;;104052;1287;544770;-72
2024/02/18 13:19:00;;;;;;;14.80;7.20;;;;;;;;;;103695;1291;545431;-73
2024/02/18 13:22:37;;;;;;;9.10;5.20;;;;;;;;;;103718;1290;544854;-72
2024/02/18 13:26:14;;;;;;;9.80;5.40;;;;;;;;;;103912;1289;545212;-71
2024/02/18 13:29:51;;;;;;;9.10;5.00;;;;;;;;;;103734;1291;544790;-73
2024/02/18 13:33:29;;;;;;;10.10;5.30;;;;;;;;;;103935;1289;545014;-74
2024/02/18 13:37:06;;;;;;;9.70;5.70;;;;;;;;;;104049;1293;545233;-72
2024/02/18 13:40:44;;;;;;;10.40;5.40;;;;;;;;;;103808;1292;544959;-73
2024/02/18 13:44:21;;;;;;;10.40;5.10;;;;;;;;;;103931;1295;545780;-73
2024/02/18 13:47:55;;;;;;;10.90;5.80;;;;;;;;;;103880;1295;545366;-74
2024/02/18 13:51:39;;;;;;;11.20;5.80;;;;;;;;;;103726;1289;545200;-73
2024/02/18 13:55:10;;;;;;;10.40;5.70;;;;;;;;;;103797;1288;545446;-71
2024/02/18 13:58:51;;;;;;;12.30;6.10;;;;;;;;;;103743;1292;545512;-72
2024/02/18 14:02:29;;;;;;;12.50;7.10;;;;;;;;;;103882;1289;544791;-72
2024/02/18 14:06:07;;;;;;;10.60;5.80;;;;;;;;;;103678;1291;545179;-73
2024/02/18 14:09:44;;;;;;;12.30;6.80;;;;;;;;;;103836;1289;545075;-73
2024/02/18 14:13:22;;;;;;;13.20;7.10;;;;;;;;;;103719;1294;545662;-72
2024/02/18 14:16:59;;;;;;;21.70;10.30;;;;;;;;;;103838;1289;545526;-72
2024/02/18 14:20:39;;;;;;;21.20;9.60;;;;;;;;;;103732;1291;544956;-72
2024/02/18 14:24:13;;;;;;;12.60;6.80;;;;;;;;;;103763;1292;545360;-73
2024/02/18 14:27:51;;;;;;;18.30;8.90;;;;;;;;;;103830;1289;545612;-72
2024/02/18 14:31:29;;;;;;;13.60;7.50;;;;;;;;;;103654;1290;545647;-73
2024/02/18 14:35:06;;;;;;;16.10;7.60;;;;;;;;;;103640;1295;544995;-72
2024/02/18 14:38:43;;;;;;;12.00;6.30;;;;;;;;;;103734;1292;545011;-72
2024/02/18 14:42:22;;;;;;;19.90;9.70;;;;;;;;;;104054;1286;545315;-73
2024/02/18 14:45:58;;;;;;;12.70;6.70;;;;;;;;;;103776;1289;544989;-72
2024/02/18 14:49:36;;;;;;;16.50;8.50;;;;;;;;;;103925;1288;544977;-73
2024/02/18 14:53:30;;;;;;;11.70;7.10;;;;;;;;;;103628;1294;545371;-71
2024/02/18 14:56:51;;;;;;;12.00;6.80;;;;;;;;;;103742;1290;545351;-73
2024/02/18 15:00:28;;;;;;;11.60;7.20;;;;;;;;;;103602;1292;544777;-72
2024/02/18 15:04:06;;;;;;;15.10;7.50;;;;;;;;;;103769;1289;544782;-72
2024/02/18 15:07:43;;;;;;;15.50;8.70;;;;;;;;;;103784;1289;545045;-72
2024/02/18 15:11:20;;;;;;;13.70;7.30;;;;;;;;;;103816;1289;545001;-72
2024/02/18 15:14:58;;;;;;;11.90;6.90;;;;;;;;;;103792;1292;546355;-72
2024/02/18 15:18:32;;;;;;;13.50;7.60;;;;;;;;;;103776;1292;545026;-72
2024/02/18 15:22:12;;;;;;;12.50;6.70;;;;;;;;;;103873;1289;544945;-73
2024/02/18 15:25:51;;;;;;;19.10;10.00;;;;;;;;;;103590;1294;544846;-72
2024/02/18 15:29:30;;;;;;;15.10;9.00;;;;;;;;;;103734;1289;544829;-71
2024/02/18 15:33:05;;;;;;;15.50;9.20;;;;;;;;;;103871;1289;545418;-71
2024/02/18 15:36:43;;;;;;;13.00;8.00;;;;;;;;;;103547;1293;545879;-71
2024/02/18 15:40:21;;;;;;;11.50;7.50;;;;;;;;;;103760;1290;545674;-72
2024/02/18 15:43:57;;;;;;;15.00;9.10;;;;;;;;;;103965;1289;545938;-72
2024/02/18 15:47:35;;;;;;;13.50;9.30;;;;;;;;;;103774;1290;546196;-72
2024/02/18 15:51:09;;;;;;;20.30;15.20;;;;;;;;;;104223;1282;545002;-72
2024/02/18 15:54:50;;;;;;;16.40;10.20;;;;;;;;;;103843;1289;544808;-72
2024/02/18 15:58:28;;;;;;;17.60;11.30;;;;;;;;;;103893;1292;545257;-72
2024/02/18 16:02:05;;;;;;;18.40;11.40;;;;;;;;;;103668;1290;544852;-72
2024/02/18 16:05:43;;;;;;;22.40;16.10;;;;;;;;;;103934;1289;545088;-72
2024/02/18 16:09:20;;;;;;;20.20;13.10;;;;;;;;;;103826;1295;544989;-72
2024/02/18 16:12:57;;;;;;;18.90;11.00;;;;;;;;;;103857;1291;545951;-72
2024/02/18 16:16:34;;;;;;;18.80;13.10;;;;;;;;;;103726;1290;544757;-72
2024/02/18 16:20:12;;;;;;;25.40;16.40;;;;;;;;;;103804;1289;545667;-72
2024/02/18 16:23:46;;;;;;;33.70;20.00;;;;;;;;;;104190;1286;544930;-72
2024/02/18 16:27:29;;;;;;;33.00;19.80;;;;;;;;;;103792;1288;545011;-72
2024/02/18 16:31:07;;;;;;;27.50;17.70;;;;;;;;;;103832;1289;545951;-72
2024/02/18 16:34:42;;;;;;;30.40;19.80;;;;;;;;;;103604;1291;544792;-72
2024/02/18 16:38:20;;;;;;;25.50;17.60;;;;;;;;;;103676;1291;544925;-72
2024/02/18 16:41:57;;;;;;;27.70;18.20;;;;;;;;;;104492;1283;545428;-72
2024/02/18 16:45:35;;;;;;;28.60;19.20;;;;;;;;;;103712;1291;545079;-72
2024/02/18 16:49:09;;;;;;;31.00;20.40;;;;;;;;;;103796;1301;545206;-72
2024/02/18 16:52:50;;;;;;;32.50;20.10;;;;;;;;;;103682;1292;544990;-72
2024/02/18 16:56:26;;;;;;;33.80;19.60;;;;;;;;;;103821;1289;545957;-72
2024/02/18 17:00:06;;;;;;;33.70;20.50;;;;;;;;;;103624;1292;544966;-72
2024/02/18 17:03:42;;;;;;;38.50;23.00;;;;;;;;;;104684;1286;545565;-72
2024/02/18 17:07:20;;;;;;;38.80;23.80;;;;;;;;;;103684;1289;544789;-72
2024/02/18 17:10:57;;;;;;;27.40;19.80;;;;;;;;;;103796;1290;544733;-72
2024/02/18 17:14:37;;;;;;;27.10;18.20;;;;;;;;;;103836;1295;545009;-71
2024/02/18 17:18:12;;;;;;;24.20;16.10;;;;;;;;;;103557;1289;544986;-72
2024/02/18 17:21:54;;;;;;;21.10;13.80;;;;;;;;;;103569;1302;546245;-72
2024/02/18 17:25:31;;;;;;;21.90;14.30;;;;;;;;;;103756;1294;545842;-71
2024/02/18 17:29:04;;;;;;;24.50;16.40;;;;;;;;;;103694;1290;544964;-72
2024/02/18 17:32:42;;;;;;;29.50;19.80;;;;;;;;;;104032;1287;545381;-71
2024/02/18 17:36:19;;;;;;;32.80;21.20;;;;;;;;;;103718;1291;544833;-71
2024/02/18 17:39:56;;;;;;;37.40;20.70;;;;;;;;;;103739;1289;545440;-72
2024/02/18 17:43:35;;;;;;;40.30;22.50;;;;;;;;;;103619;1295;545367;-71
2024/02/18 17:47:11;;;;;;;45.60;24.90;;;;;;;;;;103781;1292;544770;-71
2024/02/18 17:50:49;;;;;;;47.70;27.00;;;;;;;;;;103631;1292;544796;-71
2024/02/18 17:54:27;;;;;;;44.40;25.50;;;;;;;;;;103667;1295;544605;-72
2024/02/18 17:58:04;;;;;;;38.70;22.40;;;;;;;;;;103706;1291;544720;-71
2024/02/18 18:01:42;;;;;;;29.60;19.00;;;;;;;;;;103842;1289;545552;-72
2024/02/18 18:05:20;;;;;;;32.50;20.60;;;;;;;;;;103777;1289;545049;-72
2024/02/18 18:08:57;;;;;;;33.30;21.10;;;;;;;;;;104172;1286;544759;-71
2024/02/18 18:12:34;;;;;;;31.80;20.20;;;;;;;;;;103734;1294;545239;-71
2024/02/18 18:16:12;;;;;;;34.10;21.80;;;;;;;;;;103744;1292;544782;-72
2024/02/18 18:19:49;;;;;;;27.90;18.10;;;;;;;;;;103832;1290;545444;-72
2024/02/18 18:23:27;;;;;;;27.70;17.20;;;;;;;;;;103833;1295;545039;-71
2024/02/18 18:27:04;;;;;;;27.60;19.80;;;;;;;;;;104130;1285;544894;-72
2024/02/18 18:30:41;;;;;;;28.70;20.80;;;;;;;;;;103848;1289;544952;-72
2024/02/18 18:34:18;;;;;;;29.40;21.00;;;;;;;;;;103621;1292;545074;-71
2024/02/18 18:37:56;;;;;;;27.80;19.20;;;;;;;;;;103631;1292;545335;-71
2024/02/18 18:41:34;;;;;;;28.20;19.30;;;;;;;;;;103867;1295;545457;-72
2024/02/18 18:45:09;;;;;;;34.00;19.80;;;;;;;;;;103766;1295;545596;-72
2024/02/18 18:48:48;;;;;;;28.50;17.60;;;;;;;;;;103883;1289;545856;-72
2024/02/18 18:52:26;;;;;;;25.00;17.10;;;;;;;;;;103830;1292;545036;-72
2024/02/18 18:56:03;;;;;;;31.70;22.40;;;;;;;;;;103825;1289;545286;-71
2024/02/18 18:59:42;;;;;;;38.50;26.70;;;;;;;;;;103629;1292;545555;-72
2024/02/18 19:03:19;;;;;;;38.80;26.00;;;;;;;;;;103867;1289;544751;-71
2024/02/18 19:06:56;;;;;;;39.30;24.60;;;;;;;;;;103770;1294;545037;-72
2024/02/18 19:10:35;;;;;;;37.90;23.80;;;;;;;;;;103737;1295;545648;-72
2024/02/18 19:14:11;;;;;;;43.80;26.20;;;;;;;;;;103883;1295;544875;-71
2024/02/18 19:17:50;;;;;;;52.10;27.10;;;;;;;;;;103879;1290;545068;-72
2024/02/18 19:21:26;;;;;;;30.70;19.10;;;;;;;;;;103719;1291;545161;-71
2024/02/18 19:25:04;;;;;;;25.40;16.80;;;;;;;;;;103796;1289;545902;-71
2024/02/18 19:28:38;;;;;;;26.30;17.20;;;;;;;;;;103774;1288;545520;-71
2024/02/18 19:32:20;;;;;;;26.60;17.50;;;;;;;;;;103757;1292;545169;-72
2024/02/18 19:35:55;;;;;;;27.40;18.90;;;;;;;;;;103683;1291;545141;-71
2024/02/18 19:39:30;;;;;;;28.30;19.40;;;;;;;;;;103792;1288;545268;-72
2024/02/18 19:43:11;;;;;;;29.30;19.00;;;;;;;;;;103852;1290;545386;-71
2024/02/18 19:46:50;;;;;;;25.10;16.40;;;;;;;;;;103668;1294;545213;-72
2024/02/18 19:50:27;;;;;;;28.40;18.30;;;;;;;;;;103754;1289;544985;-72
2024/02/18 19:54:03;;;;;;;31.60;20.00;;;;;;;;;;103705;1289;545007;-71
2024/02/18 19:57:45;;;;;;;32.40;21.50;;;;;;;;;;103647;1291;544997;-72
2024/02/18 20:01:18;;;;;;;34.30;23.80;;;;;;;;;;103961;1289;545943;-72
2024/02/18 20:04:56;;;;;;;35.10;22.30;;;;;;;;;;103699;1289;544792;-72
2024/02/18 20:08:37;;;;;;;33.10;22.40;;;;;;;;;;103820;1290;544959;-71
2024/02/18 20:12:11;;;;;;;34.80;23.40;;;;;;;;;;103736;1300;544976;-72
2024/02/18 20:15:48;;;;;;;36.40;24.50;;;;;;;;;;103776;1289;545056;-71
2024/02/18 20:19:26;;;;;;;37.40;25.30;;;;;;;;;;103762;1290;544923;-72
2024/02/18 20:23:03;;;;;;;38.50;24.40;;;;;;;;;;103842;1303;545263;-72
2024/02/18 20:26:41;;;;;;;35.80;22.80;;;;;;;;;;104093;1285;545006;-72
2024/02/18 20:30:20;;;;;;;41.10;26.30;;;;;;;;;;103786;1289;544983;-72
2024/02/18 20:33:55;;;;;;;40.70;25.30;;;;;;;;;;103892;1294;545801;-72
2024/02/18 20:37:33;;;;;;;43.10;27.60;;;;;;;;;;103976;1289;544885;-72
2024/02/18 20:41:11;;;;;;;40.50;26.40;;;;;;;;;;103937;1289;544949;-72
2024/02/18 20:44:48;;;;;;;49.10;28.80;;;;;;;;;;103716;1290;544734;-72
2024/02/18 20:48:25;;;;;;;52.30;31.10;;;;;;;;;;103751;1290;545359;-72